Cambridge, Massachusetts
Current Conditions -  °F | °C
As of 5:54 PM on Tuesday 27 Jan 2015 (Local Time) from KBOS Reporting Station
Light Snow Light Snow  
Wind Chill:   Ceiling: 1700
Heat Index: 19°   Visibility: 1mi
Dew Point: 14°   Wind: 22mph
Humidity: 81%   Direction: 350°N
Pressure: 29.55"   Gusts: 37mph
Location:  42.37°N, 71.1°W
Report Text: KBOS 272254Z 35019G32KT 1SM R04R/5500VP6000FT -SN OVC017 M07/M10 A2955 RMK AO2 PK WND 34033/2204 SLP006 P0001 T10721100 $
Loading
Personal Weather Stations






























Interactive Weather Map New forecast layout! Learn more

10-Day Weather Forecast

Advertisements
Track Severe Weather on mobile